Weather History for KHLX - September, 2013

Change the Weather History Date:

Saturday, September 14, 2013

  Actual Average (KBLF) Record (KBLF)
Temperature  
Mean Temperature 60 °F 66 °F  
Max Temperature 71 °F 75 °F 92 °F (1998)
Min Temperature 50 °F 58 °F 39 °F (1985)
Degree Days  
Heating Degree Days 4 2  
Month to date heating degree days 14  
Since 1 July heating degree days 20  
Cooling Degree Days 0 3  
Month to date cooling degree days 63  
Year to date cooling degree days 797  
Growing Degree Days 10 (Base 50)    
Moisture  
Dew Point 49 °F    
Average Humidity 71    
Maximum Humidity 94    
Minimum Humidity 41    
Precipitation  
Precipitation 0.00 in 0.11 in 0.81 in (1991)
Month to date precipitation 1.42  
Year to date precipitation 29.81  
Snow  
Snow 0.00 in - - ()
Month to date snowfall  
Since 1 July snowfall  
Since 1 September snowfall  
Snow Depth -    
Sea Level Pressure  
Sea Level Pressure 30.13 in    
Wind  
Wind Speed 4 mph (North)    
Max Wind Speed 13 mph    
Max Gust Speed -    
Visibility 10 miles    
Events      
T = Trace of Precipitation, MM = Missing Value Source: NWS Daily Summary

Daily Weather History Graph

Daily Weather History Graph

Search for Another Location

Airport or City:

Trip Planner

Search our weather history database for the weather conditions in past years. The results will help you decide how hot, cold, wet, or windy it might be!

Date:

Astronomy

Sep. 14, 2013 Rise Set
Actual Time 7:04 AM EDT 7:31 PM EDT
Civil Twilight 6:38 AM EDT 7:57 PM EDT
Nautical Twilight 6:08 AM EDT 8:28 PM EDT
Astronomical Twilight 5:37 AM EDT 8:59 PM EDT
Moon 4:06 PM EDT (9/14) 1:41 AM EDT (9/14)
Length of Visible Light 13h 18m
Length of Day
12h 27m
Waxing Gibbous, 72% of the Moon is Illuminated
Sep 14
Waxing Gibbous
Sep 19
Full
Sep 26
Last Quarter
Oct 4
New
Oct 11
First Quarter

Hourly Weather History & Observations

Time (EDT) Temp. Dew Point Humidity Pressure Visibility Wind Dir Wind Speed Gust Speed Precip Events Conditions
12:15 AM 53.6 °F 48.2 °F 82% 30.05 in 10.0 mi NNW 12.7 mph - N/A   Clear
12:35 AM 53.6 °F 50.0 °F 88% 30.05 in 10.0 mi North 5.8 mph - N/A   Clear
12:55 AM 53.6 °F 48.2 °F 82% 30.06 in 10.0 mi Calm Calm - N/A   Clear
1:15 AM 51.8 °F 48.2 °F 88% 30.06 in 10.0 mi Calm Calm - N/A   Clear
1:35 AM 53.6 °F 48.2 °F 82% 30.05 in 10.0 mi NW 12.7 mph - N/A   Clear
1:55 AM 53.6 °F 48.2 °F 82% 30.05 in 10.0 mi NW 10.4 mph - N/A   Clear
2:15 AM 53.6 °F 48.2 °F 82% 30.05 in 10.0 mi NNW 4.6 mph - N/A   Clear
2:35 AM 53.6 °F 48.2 °F 82% 30.05 in 10.0 mi NNW 4.6 mph - N/A   Clear
2:55 AM 51.8 °F 48.2 °F 88% 30.05 in 10.0 mi NW 6.9 mph - N/A   Clear
3:15 AM 53.6 °F 48.2 °F 82% 30.05 in 10.0 mi NW 8.1 mph - N/A   Clear
3:35 AM 51.8 °F 48.2 °F 88% 30.05 in 10.0 mi NW 5.8 mph - N/A   Clear
3:55 AM 51.8 °F 48.2 °F 88% 30.05 in 10.0 mi NW 3.5 mph - N/A   Clear
4:15 AM 51.8 °F 48.2 °F 88% 30.05 in 10.0 mi Calm Calm - N/A   Clear
4:35 AM 51.8 °F 48.2 °F 88% 30.05 in 10.0 mi Calm Calm - N/A   Clear
4:55 AM 51.8 °F 48.2 °F 88% 30.05 in 10.0 mi Calm Calm - N/A   Clear
5:15 AM 51.8 °F 48.2 °F 88% 30.06 in 10.0 mi Calm Calm - N/A   Clear
5:35 AM 50.0 °F 48.2 °F 94% 30.07 in 10.0 mi Calm Calm - N/A   Clear
5:55 AM 50.0 °F 48.2 °F 94% 30.07 in 10.0 mi Calm Calm - N/A   Clear
6:15 AM 50.0 °F 48.2 °F 94% 30.07 in 10.0 mi Calm Calm - N/A   Clear
6:35 AM 50.0 °F 48.2 °F 94% 30.08 in 10.0 mi Calm Calm - N/A   Clear
6:55 AM 50.0 °F 48.2 °F 94% 30.09 in 10.0 mi Calm Calm - N/A   Clear
7:15 AM 50.0 °F 48.2 °F 94% 30.10 in 10.0 mi Calm Calm - N/A   Clear
7:35 AM 50.0 °F 48.2 °F 94% 30.11 in 10.0 mi Calm Calm - N/A   Clear
7:55 AM 51.8 °F 48.2 °F 88% 30.12 in 10.0 mi Calm Calm - N/A   Clear
8:15 AM 51.8 °F 48.2 °F 88% 30.13 in 10.0 mi Calm Calm - N/A   Clear
8:35 AM 53.6 °F 50.0 °F 88% 30.13 in 10.0 mi Calm Calm - N/A   Clear
8:55 AM 53.6 °F 50.0 °F 88% 30.14 in 10.0 mi Calm Calm - N/A   Clear
9:15 AM 53.6 °F 50.0 °F 88% 30.14 in 10.0 mi NNE 3.5 mph - N/A   Clear
9:35 AM 55.4 °F 50.0 °F 82% 30.15 in 10.0 mi North 3.5 mph - N/A   Clear
9:55 AM 55.4 °F 50.0 °F 82% 30.16 in 10.0 mi North 3.5 mph - N/A   Clear
10:15 AM 57.2 °F 50.0 °F 77% 30.16 in 10.0 mi NNE 4.6 mph - N/A   Clear
10:35 AM 59.0 °F 50.0 °F 72% 30.16 in 10.0 mi North 4.6 mph - N/A   Clear
10:55 AM 60.8 °F 48.2 °F 63% 30.16 in 10.0 mi NNE 4.6 mph - N/A   Clear
11:15 AM 60.8 °F 48.2 °F 63% 30.16 in 10.0 mi NNW 5.8 mph - N/A   Clear
11:35 AM 62.6 °F 48.2 °F 59% 30.16 in 10.0 mi Calm Calm - N/A   Clear
11:55 AM 62.6 °F 46.4 °F 55% 30.16 in 10.0 mi North 4.6 mph - N/A   Clear
12:15 PM 64.4 °F 46.4 °F 52% 30.16 in 10.0 mi WNW 5.8 mph - N/A   Clear
12:35 PM 64.4 °F 48.2 °F 56% 30.16 in 10.0 mi Calm Calm - N/A   Clear
12:55 PM 66.2 °F 50.0 °F 56% 30.15 in 10.0 mi NNW 3.5 mph - N/A   Clear
1:15 PM 66.2 °F 46.4 °F 49% 30.15 in 10.0 mi WNW 6.9 mph - N/A   Clear
1:35 PM 66.2 °F 46.4 °F 49% 30.15 in 10.0 mi Calm Calm - N/A   Clear
1:55 PM 66.2 °F 48.2 °F 52% 30.14 in 10.0 mi Calm Calm - N/A   Clear
2:15 PM 66.2 °F 48.2 °F 52% 30.14 in 10.0 mi Calm Calm - N/A   Clear
2:35 PM 66.2 °F 48.2 °F 52% 30.14 in 10.0 mi West 6.9 mph - N/A   Clear
2:55 PM 69.8 °F 46.4 °F 43% 30.14 in 10.0 mi SW 6.9 mph - N/A   Clear
3:15 PM 68.0 °F 46.4 °F 46% 30.14 in 10.0 mi NW 4.6 mph - N/A   Clear
3:35 PM 68.0 °F 46.4 °F 46% 30.13 in 10.0 mi WNW 3.5 mph - N/A   Clear
3:55 PM 69.8 °F 48.2 °F 46% 30.13 in 10.0 mi North 3.5 mph - N/A   Clear
4:15 PM 71.6 °F 46.4 °F 41% 30.13 in 10.0 mi WNW 4.6 mph - N/A   Clear
4:35 PM 69.8 °F 48.2 °F 46% 30.13 in 10.0 mi Calm Calm - N/A   Clear
4:55 PM 69.8 °F 48.2 °F 46% 30.14 in 10.0 mi Calm Calm - N/A   Clear
5:15 PM 69.8 °F 48.2 °F 46% 30.14 in 10.0 mi Calm Calm - N/A   Clear
5:35 PM 69.8 °F 48.2 °F 46% 30.15 in 10.0 mi Calm Calm - N/A   Clear
5:55 PM 69.8 °F 48.2 °F 46% 30.15 in 10.0 mi Calm Calm - N/A   Clear
6:15 PM 69.8 °F 48.2 °F 46% 30.15 in 10.0 mi North 3.5 mph - N/A   Clear
6:35 PM 69.8 °F 50.0 °F 49% 30.15 in 10.0 mi Calm Calm - N/A   Clear
6:55 PM 68.0 °F 51.8 °F 56% 30.15 in 10.0 mi Calm Calm - N/A   Clear
7:15 PM 64.4 °F 51.8 °F 64% 30.15 in 10.0 mi ESE 3.5 mph - N/A   Clear
7:35 PM 64.4 °F 48.2 °F 56% 30.16 in 10.0 mi East 3.5 mph - N/A   Clear
7:55 PM 64.4 °F 48.2 °F 56% 30.16 in 10.0 mi ENE 3.5 mph - N/A   Clear
8:15 PM 64.4 °F 48.2 °F 56% 30.17 in 10.0 mi ENE 3.5 mph - N/A   Clear
8:35 PM 62.6 °F 50.0 °F 63% 30.18 in 10.0 mi SE 4.6 mph - N/A   Clear
8:55 PM 57.2 °F 53.6 °F 88% 30.19 in 10.0 mi SE 3.5 mph - N/A   Clear
9:15 PM 60.8 °F 51.8 °F 72% 30.19 in 10.0 mi SE 3.5 mph - N/A   Clear
9:35 PM 62.6 °F 50.0 °F 63% 30.19 in 10.0 mi SSE 3.5 mph - N/A   Clear
9:55 PM 60.8 °F 51.8 °F 72% 30.20 in 10.0 mi SE 4.6 mph - N/A   Clear
10:15 PM 60.8 °F 51.8 °F 72% 30.19 in 10.0 mi SE 3.5 mph - N/A   Clear
10:35 PM 60.8 °F 53.6 °F 77% 30.20 in 10.0 mi SE 3.5 mph - N/A   Clear
10:55 PM 59.0 °F 53.6 °F 82% 30.21 in 10.0 mi ESE 3.5 mph - N/A   Clear
11:15 PM 55.4 °F 51.8 °F 88% 30.21 in 10.0 mi SE 3.5 mph - N/A   Clear
11:35 PM 55.4 °F 51.8 °F 88% 30.21 in 10.0 mi SE 3.5 mph - N/A   Clear
11:55 PM 57.2 °F 53.6 °F 88% 30.22 in 10.0 mi SE 3.5 mph - N/A   Clear